Time;durP1;ratioP1;P1;durP2;ratioP2;P2;SDS_P1;SDS_P2;PMS_P1;PMS_P2;Temp;Humidity;BMP_temperature;BMP_pressure;BME280_temperature;BME280_humidity;BME280_pressure;Samples;Min_cycle;Max_cycle;Signal;HPM_P1;HPM_P2
2021/12/26 00:02:06;;;;;;;337.70;165.50;;;;;;;-10.60;71.39;100399.27;108508;1281;22222;-76
2021/12/26 00:04:36;;;;;;;319.00;154.50;;;;;;;-10.61;71.69;100398.95;108596;1281;22036;-76
2021/12/26 00:07:05;;;;;;;329.70;160.40;;;;;;;-10.61;71.83;100403.37;108434;1281;23046;-76
2021/12/26 00:09:36;;;;;;;316.30;153.70;;;;;;;-10.59;71.84;100404.02;108486;1281;22060;-75
2021/12/26 00:12:07;;;;;;;308.00;154.40;;;;;;;-10.62;71.79;100402.04;108198;1286;22253;-75
2021/12/26 00:14:40;;;;;;;308.40;149.30;;;;;;;-10.67;71.86;100401.98;108019;1287;23040;-76
2021/12/26 00:17:09;;;;;;;278.80;137.10;;;;;;;-10.67;71.94;100400.45;108209;1286;21983;-76
2021/12/26 00:19:38;;;;;;;269.50;132.10;;;;;;;-10.69;71.88;100399.12;108159;1286;23733;-76
2021/12/26 00:22:08;;;;;;;268.80;133.80;;;;;;;-10.72;72.03;100397.30;108354;1285;22038;-75
2021/12/26 00:24:42;;;;;;;254.80;132.30;;;;;;;-10.73;72.14;100395.65;108183;1286;22003;-76
2021/12/26 00:27:16;;;;;;;280.30;128.30;;;;;;;-10.75;72.19;100400.27;108391;1285;22007;-76
2021/12/26 00:29:47;;;;;;;376.80;168.70;;;;;;;-10.72;72.42;100399.37;108426;1280;23718;-77
2021/12/26 00:32:19;;;;;;;305.00;141.40;;;;;;;-10.67;72.43;100398.23;108614;1275;22035;-76
2021/12/26 00:34:50;;;;;;;275.20;122.40;;;;;;;-10.69;72.21;100396.73;108961;1275;21974;-76
2021/12/26 00:37:21;;;;;;;249.80;120.60;;;;;;;-10.69;72.27;100397.42;108627;1275;442564;-77
2021/12/26 00:39:53;;;;;;;373.60;203.80;;;;;;;-10.66;72.36;100400.95;109046;1275;22013;-77
2021/12/26 00:42:24;;;;;;;430.40;257.00;;;;;;;-10.63;72.42;100405.98;108910;1275;22453;-76
2021/12/26 00:44:56;;;;;;;361.60;180.40;;;;;;;-10.57;72.59;100404.66;108851;1275;23899;-75
2021/12/26 00:47:30;;;;;;;224.40;112.80;;;;;;;-10.51;72.72;100405.21;108894;1275;21983;-75
2021/12/26 00:50:04;;;;;;;231.20;111.90;;;;;;;-10.52;72.39;100402.84;108948;1275;22233;-76
2021/12/26 00:52:33;;;;;;;238.50;115.30;;;;;;;-10.53;72.36;100404.92;109117;1275;23701;-75
2021/12/26 00:55:08;;;;;;;223.00;110.30;;;;;;;-10.54;72.31;100407.32;109156;1275;22674;-75
2021/12/26 00:57:41;;;;;;;231.80;112.30;;;;;;;-10.51;72.43;100409.80;109014;1275;22995;-75
2021/12/26 01:00:18;;;;;;;207.90;101.30;;;;;;;-10.52;72.39;100412.20;108998;1275;23093;-75
2021/12/26 01:02:49;;;;;;;189.70;96.90;;;;;;;-10.60;72.13;100406.94;109005;1275;22743;-75
2021/12/26 01:05:22;;;;;;;206.90;100.40;;;;;;;-10.74;71.88;100409.10;108920;1275;23040;-76
2021/12/26 01:08:00;;;;;;;207.30;107.70;;;;;;;-10.85;71.99;100408.14;109045;1275;23049;-76
2021/12/26 01:10:56;;;;;;;186.20;96.80;;;;;;;-10.89;72.12;100412.80;108891;1275;23692;-75
2021/12/26 01:13:37;;;;;;;231.50;109.00;;;;;;;-10.94;72.21;100411.73;108891;1275;21999;-75
2021/12/26 01:16:33;;;;;;;201.00;105.30;;;;;;;-10.99;72.27;100413.02;108841;1275;23694;-75
2021/12/26 01:19:15;;;;;;;191.10;99.90;;;;;;;-10.97;72.40;100413.14;109079;1275;22009;-75
2021/12/26 01:21:45;;;;;;;207.20;98.00;;;;;;;-10.93;72.46;100410.17;109119;1274;21968;-75
2021/12/26 01:24:18;;;;;;;198.40;99.60;;;;;;;-10.89;72.48;100407.54;109034;1274;23724;-74
2021/12/26 01:26:48;;;;;;;195.60;98.80;;;;;;;-10.87;72.40;100402.73;108913;1275;22040;-74
2021/12/26 01:29:27;;;;;;;188.10;96.40;;;;;;;-10.85;72.44;100401.69;109122;1273;23526;-75
2021/12/26 01:31:57;;;;;;;210.80;101.30;;;;;;;-10.84;72.36;100400.64;109221;1275;22842;-75
2021/12/26 01:34:47;;;;;;;200.00;96.30;;;;;;;-10.84;72.21;100398.25;108976;1275;21970;-75
2021/12/26 01:37:21;;;;;;;197.90;101.20;;;;;;;-10.85;72.24;100400.15;109059;1275;21974;-75
2021/12/26 01:40:25;;;;;;;188.20;98.00;;;;;;;-10.82;72.34;100399.92;108899;1275;21948;-74
2021/12/26 01:43:23;;;;;;;254.00;111.00;;;;;;;-10.80;72.36;100394.09;109170;1274;22018;-75
2021/12/26 01:46:04;;;;;;;228.20;117.00;;;;;;;-10.80;72.18;100395.11;108952;1275;22081;-75
2021/12/26 01:48:35;;;;;;;196.50;100.90;;;;;;;-10.80;72.16;100392.38;109104;1275;23475;-74
2021/12/26 01:51:09;;;;;;;205.40;99.40;;;;;;;-10.79;72.15;100394.92;109201;1275;21966;-75
2021/12/26 01:53:42;;;;;;;189.20;96.30;;;;;;;-10.78;72.14;100395.75;108978;1275;21970;-76
2021/12/26 01:56:13;;;;;;;191.90;97.20;;;;;;;-10.78;72.07;100393.38;108959;1275;22000;-76
2021/12/26 01:58:42;;;;;;;211.10;106.00;;;;;;;-10.79;72.11;100395.77;108915;1275;23080;-76
2021/12/26 02:01:39;;;;;;;184.80;92.80;;;;;;;-10.83;71.87;100398.58;108717;1278;22083;-76
2021/12/26 02:04:09;;;;;;;181.00;93.30;;;;;;;-10.96;71.59;100404.12;108730;1278;23628;-75
2021/12/26 02:06:39;;;;;;;197.40;94.70;;;;;;;-11.12;71.50;100397.47;108917;1278;22095;-75
2021/12/26 02:09:12;;;;;;;224.60;104.10;;;;;;;-11.29;71.38;100396.95;108765;1279;22023;-75
2021/12/26 02:11:44;;;;;;;244.30;119.70;;;;;;;-11.39;71.57;100395.59;108525;1284;23048;-75
2021/12/26 02:14:13;;;;;;;249.20;123.00;;;;;;;-11.46;71.59;100393.52;107998;1291;23115;-76
2021/12/26 02:17:04;;;;;;;226.20;110.90;;;;;;;-11.53;71.75;100394.33;107673;1294;22004;-75
2021/12/26 02:19:34;;;;;;;187.70;92.10;;;;;;;-11.59;71.75;100388.48;107652;1291;22005;-75
2021/12/26 02:22:15;;;;;;;188.70;95.30;;;;;;;-11.63;71.98;100387.20;107433;1295;23722;-76
2021/12/26 02:25:12;;;;;;;178.80;89.00;;;;;;;-11.65;72.13;100386.39;107623;1295;21995;-75
2021/12/26 02:27:42;;;;;;;182.80;91.40;;;;;;;-11.66;72.22;100380.61;107460;1295;22239;-79
2021/12/26 02:30:24;;;;;;;176.40;88.70;;;;;;;-11.68;72.32;100381.34;107335;1295;22314;-77
2021/12/26 02:33:00;;;;;;;178.80;88.60;;;;;;;-11.69;72.36;100383.41;107654;1291;22100;-76
2021/12/26 02:35:33;;;;;;;190.00;95.90;;;;;;;-11.71;72.44;100387.84;107958;1288;23059;-77
2021/12/26 02:38:04;;;;;;;190.60;93.50;;;;;;;-11.71;72.49;100392.27;108098;1288;22468;-76
2021/12/26 02:40:34;;;;;;;178.70;88.30;;;;;;;-11.68;72.60;100394.08;108419;1281;23040;-75
2021/12/26 02:43:05;;;;;;;195.90;99.10;;;;;;;-11.67;72.61;100392.70;108492;1281;21988;-76
2021/12/26 02:45:37;;;;;;;482.60;221.50;;;;;;;-11.67;72.63;100387.77;108524;1281;22943;-76
2021/12/26 02:48:09;;;;;;;423.00;172.80;;;;;;;-11.64;72.57;100390.59;108504;1282;22949;-75
2021/12/26 02:50:41;;;;;;;343.40;135.90;;;;;;;-11.59;72.60;100393.09;108551;1281;23770;-76
2021/12/26 02:53:20;;;;;;;338.90;136.20;;;;;;;-11.58;72.55;100397.48;108508;1281;21983;-76
2021/12/26 02:55:58;;;;;;;282.90;121.70;;;;;;;-11.57;72.43;100398.48;108850;1275;23588;-77
2021/12/26 02:58:28;;;;;;;310.90;133.10;;;;;;;-11.57;72.41;100400.18;108899;1275;22059;-76
2021/12/26 03:01:05;;;;;;;279.00;128.80;;;;;;;-11.57;72.17;100403.25;109019;1273;22875;-77
2021/12/26 03:03:37;;;;;;;257.40;120.20;;;;;;;-11.58;72.29;100401.23;109049;1275;24315;-76
2021/12/26 03:06:20;;;;;;;234.90;111.00;;;;;;;-11.60;72.23;100399.38;109047;1274;22019;-77
2021/12/26 03:08:51;;;;;;;240.20;113.40;;;;;;;-11.59;72.32;100400.23;108870;1275;21982;-77
2021/12/26 03:11:26;;;;;;;227.60;112.30;;;;;;;-11.57;72.42;100402.73;109031;1275;22876;-77
2021/12/26 03:13:55;;;;;;;212.70;104.80;;;;;;;-11.58;72.23;100407.16;108931;1275;22079;-77
2021/12/26 03:16:27;;;;;;;223.40;111.80;;;;;;;-11.64;72.04;100415.94;108955;1275;23710;-77
2021/12/26 03:18:59;;;;;;;213.50;108.80;;;;;;;-11.69;72.01;100418.23;108915;1275;23714;-76
2021/12/26 03:21:29;;;;;;;322.50;137.30;;;;;;;-11.71;72.05;100412.49;109115;1275;22376;-76
2021/12/26 03:23:58;;;;;;;272.70;121.60;;;;;;;-11.68;72.27;100410.91;108946;1273;24290;-76
2021/12/26 03:26:29;;;;;;;228.10;113.70;;;;;;;-11.65;72.24;100407.46;108934;1274;21982;-76
2021/12/26 03:29:00;;;;;;;219.70;104.10;;;;;;;-11.63;72.15;100410.13;108566;1280;22041;-75
2021/12/26 03:31:29;;;;;;;231.00;113.30;;;;;;;-11.62;72.22;100405.55;108052;1287;23017;-75
2021/12/26 03:34:03;;;;;;;372.40;174.40;;;;;;;-11.62;72.09;100402.30;108163;1288;22010;-75
2021/12/26 03:36:33;;;;;;;440.10;222.00;;;;;;;-11.63;71.94;100402.66;108208;1287;22003;-75
2021/12/26 03:39:05;;;;;;;369.60;176.70;;;;;;;-11.65;71.93;100405.25;108017;1291;22011;-75
2021/12/26 03:41:37;;;;;;;357.80;165.20;;;;;;;-11.65;72.03;100405.23;107996;1291;22029;-76
2021/12/26 03:44:11;;;;;;;353.40;153.60;;;;;;;-11.66;72.01;100407.30;107994;1291;21991;-77
2021/12/26 03:46:42;;;;;;;328.30;136.50;;;;;;;-11.65;72.01;100408.65;107627;1291;23077;-76
2021/12/26 03:49:13;;;;;;;347.50;141.10;;;;;;;-11.67;71.96;100406.13;108071;1284;22083;-75
2021/12/26 03:51:44;;;;;;;427.80;170.80;;;;;;;-11.68;71.86;100405.30;108375;1284;22745;-76
2021/12/26 03:54:14;;;;;;;317.20;137.70;;;;;;;-11.72;71.85;100403.31;108371;1284;23140;-75
2021/12/26 03:56:44;;;;;;;271.70;122.30;;;;;;;-11.75;71.84;100402.86;108015;1284;22009;-75
2021/12/26 03:59:17;;;;;;;304.40;135.20;;;;;;;-11.74;71.88;100401.50;108279;1285;22015;-76
2021/12/26 04:01:46;;;;;;;262.40;120.10;;;;;;;-11.73;71.97;100401.31;108233;1287;22023;-75
2021/12/26 04:04:16;;;;;;;247.60;118.50;;;;;;;-11.72;71.97;100401.80;108389;1282;23113;-75
2021/12/26 04:06:47;;;;;;;224.50;110.50;;;;;;;-11.72;71.94;100401.80;108716;1280;22116;-75
2021/12/26 04:09:18;;;;;;;237.40;119.70;;;;;;;-11.78;71.65;100403.77;108569;1281;22070;-75
2021/12/26 04:11:47;;;;;;;229.60;115.40;;;;;;;-11.87;71.55;100410.73;108486;1282;22057;-74
2021/12/26 04:14:22;;;;;;;233.80;113.10;;;;;;;-11.97;71.54;100417.02;108583;1275;23037;-74
2021/12/26 04:16:51;;;;;;;231.00;114.00;;;;;;;-12.10;71.36;100421.30;109208;1275;23022;-74
2021/12/26 04:19:23;;;;;;;232.10;116.70;;;;;;;-12.21;71.50;100430.30;108503;1281;21976;-76
2021/12/26 04:21:52;;;;;;;223.60;115.30;;;;;;;-12.30;71.52;100431.29;108579;1281;22041;-76
2021/12/26 04:24:25;;;;;;;232.70;113.80;;;;;;;-12.40;71.55;100428.54;108708;1280;22039;-73
2021/12/26 04:26:55;;;;;;;219.90;112.20;;;;;;;-12.48;71.51;100423.73;108718;1281;23688;-74
2021/12/26 04:29:25;;;;;;;232.20;116.80;;;;;;;-12.50;71.71;100419.19;108526;1281;22133;-74
2021/12/26 04:31:55;;;;;;;259.80;123.50;;;;;;;-12.46;72.00;100420.84;108754;1281;21976;-74
2021/12/26 04:34:25;;;;;;;241.10;119.90;;;;;;;-12.38;72.26;100426.30;108576;1282;22851;-74
2021/12/26 04:36:56;;;;;;;213.80;111.00;;;;;;;-12.30;72.35;100430.78;108667;1276;22194;-75
2021/12/26 04:39:27;;;;;;;220.30;113.30;;;;;;;-12.27;72.28;100434.81;108994;1275;23110;-74
2021/12/26 04:41:56;;;;;;;237.20;114.00;;;;;;;-12.34;71.88;100437.62;109010;1274;22094;-77
2021/12/26 04:44:45;;;;;;;239.10;122.80;;;;;;;-12.43;71.77;100439.77;109054;1275;23743;-76
2021/12/26 04:47:40;;;;;;;235.00;114.90;;;;;;;-12.46;71.88;100439.15;109194;1275;23045;-75
2021/12/26 04:50:21;;;;;;;201.00;101.90;;;;;;;-12.52;71.84;100439.23;109025;1274;24184;-75
2021/12/26 04:52:59;;;;;;;204.80;106.60;;;;;;;-12.63;71.67;100435.30;108514;1282;23631;-74
2021/12/26 04:55:29;;;;;;;212.70;107.00;;;;;;;-12.68;71.79;100444.02;108556;1281;23315;-74
2021/12/26 04:58:03;;;;;;;223.20;108.40;;;;;;;-12.71;71.93;100445.58;108496;1281;23745;-75
2021/12/26 05:00:33;;;;;;;211.70;109.30;;;;;;;-12.75;71.93;100448.70;108523;1281;25070;-75
2021/12/26 05:03:06;;;;;;;203.30;107.20;;;;;;;-12.79;72.02;100444.51;108449;1284;22208;-75
2021/12/26 05:05:41;;;;;;;228.70;115.30;;;;;;;-12.83;72.01;100444.55;108143;1288;22174;-75
2021/12/26 05:08:13;;;;;;;226.60;116.80;;;;;;;-12.85;72.14;100443.73;107740;1292;22083;-75
2021/12/26 05:10:43;;;;;;;;;;;;;;;-12.85;72.17;100444.91;107804;1288;23066;-75
2021/12/26 05:13:14;;;;;;;218.80;109.70;;;;;;;-12.89;72.27;100446.31;108219;1287;23606;-75
2021/12/26 05:15:44;;;;;;;223.60;110.60;;;;;;;-12.92;72.23;100452.12;108091;1288;23793;-76
2021/12/26 05:18:14;;;;;;;225.80;109.60;;;;;;;-12.95;72.17;100458.76;108054;1287;24594;-76
2021/12/26 05:20:44;;;;;;;200.90;108.50;;;;;;;-12.96;72.28;100459.63;108163;1282;23027;-75
2021/12/26 05:23:20;;;;;;;201.70;106.60;;;;;;;-12.92;72.42;100458.05;108041;1285;22120;-76
2021/12/26 05:25:54;;;;;;;203.10;104.00;;;;;;;-12.88;72.46;100455.63;108154;1282;23718;-75
2021/12/26 05:28:26;;;;;;;205.20;103.20;;;;;;;-12.87;72.33;100454.95;108427;1282;23033;-76
2021/12/26 05:30:55;;;;;;;197.60;99.90;;;;;;;-12.93;72.25;100462.30;108510;1282;21992;-75
2021/12/26 05:33:28;;;;;;;197.00;102.10;;;;;;;-12.96;72.30;100463.86;108569;1281;23609;-75
2021/12/26 05:36:00;;;;;;;194.90;102.10;;;;;;;-12.96;72.29;100466.77;108413;1281;21974;-75
2021/12/26 05:38:32;;;;;;;194.30;98.00;;;;;;;-12.97;72.35;100469.47;108492;1281;22044;-75
2021/12/26 05:41:01;;;;;;;184.00;93.70;;;;;;;-13.01;72.22;100467.65;108711;1275;23065;-75
2021/12/26 05:43:34;;;;;;;196.20;99.20;;;;;;;-13.06;72.18;100465.50;108991;1275;23768;-74
2021/12/26 05:46:03;;;;;;;192.10;98.70;;;;;;;-13.10;72.23;100468.09;108837;1275;23780;-76
2021/12/26 05:48:34;;;;;;;193.90;100.20;;;;;;;-13.09;72.33;100468.42;108542;1281;23088;-75
2021/12/26 05:51:04;;;;;;;196.70;101.20;;;;;;;-13.10;72.27;100467.24;108473;1281;21994;-76
2021/12/26 05:53:58;;;;;;;189.80;98.20;;;;;;;-13.14;72.23;100468.63;108496;1281;22021;-76
2021/12/26 05:56:27;;;;;;;195.40;94.90;;;;;;;-13.17;72.13;100470.70;108657;1281;23716;-76
2021/12/26 05:58:58;;;;;;;195.50;97.20;;;;;;;-13.22;72.12;100474.66;108530;1281;22020;-75
2021/12/26 06:01:28;;;;;;;177.90;96.70;;;;;;;-13.25;72.16;100473.02;108459;1282;22032;-75
2021/12/26 06:03:59;;;;;;;182.70;94.50;;;;;;;-13.24;72.27;100475.22;108475;1281;22453;-75
2021/12/26 06:06:28;;;;;;;186.90;95.90;;;;;;;-13.26;72.33;100472.20;108628;1275;21987;-76
2021/12/26 06:08:58;;;;;;;190.10;100.50;;;;;;;-13.31;72.12;100470.88;109001;1275;22087;-75
2021/12/26 06:11:30;;;;;;;196.70;104.50;;;;;;;-13.33;72.19;100471.41;109150;1275;21993;-76
2021/12/26 06:13:59;;;;;;;189.90;97.20;;;;;;;-13.34;72.24;100472.59;109076;1275;22009;-74
2021/12/26 06:16:29;;;;;;;184.30;97.10;;;;;;;-13.36;72.11;100476.86;109098;1275;23859;-75
2021/12/26 06:18:59;;;;;;;187.60;94.50;;;;;;;-13.39;72.30;100478.58;108965;1273;23017;-75
2021/12/26 06:21:37;;;;;;;193.60;98.90;;;;;;;-13.39;72.28;100479.42;109018;1275;24896;-75
2021/12/26 06:24:30;;;;;;;202.50;97.20;;;;;;;-13.35;72.41;100478.21;108815;1275;22231;-74
2021/12/26 06:27:24;;;;;;;199.90;104.10;;;;;;;-13.28;72.65;100482.38;109034;1274;22001;-74
2021/12/26 06:30:14;;;;;;;186.20;100.10;;;;;;;-13.21;72.60;100485.16;108704;1278;22028;-75
2021/12/26 06:33:11;;;;;;;200.80;104.50;;;;;;;-13.19;72.49;100484.45;108381;1284;21990;-76
2021/12/26 06:36:16;;;;;;;200.20;100.10;;;;;;;-13.17;72.58;100480.70;107711;1294;23740;-76
2021/12/26 06:39:24;;;;;;;205.60;100.40;;;;;;;-13.13;72.59;100481.67;107656;1294;23048;-76
2021/12/26 06:42:12;;;;;;;197.60;101.20;;;;;;;-13.13;72.44;100484.73;107730;1294;22778;-76
2021/12/26 06:44:41;;;;;;;201.90;103.30;;;;;;;-13.12;72.51;100483.52;107651;1295;22015;-76
2021/12/26 06:47:17;;;;;;;211.70;112.30;;;;;;;-13.11;72.36;100486.57;107678;1294;23200;-75
2021/12/26 06:49:53;;;;;;;233.20;114.10;;;;;;;-13.12;72.23;100488.80;107859;1292;23839;-75
2021/12/26 06:52:23;;;;;;;229.40;120.50;;;;;;;-13.19;72.07;100488.54;108179;1288;22232;-75
2021/12/26 06:54:52;;;;;;;263.00;124.20;;;;;;;-13.28;71.98;100494.73;108472;1282;22000;-75
2021/12/26 06:57:27;;;;;;;256.50;125.20;;;;;;;-13.39;71.82;100497.89;108480;1282;23040;-75
2021/12/26 06:59:59;;;;;;;254.40;127.30;;;;;;;-13.48;71.86;100497.64;108491;1283;22188;-74
2021/12/26 07:02:30;;;;;;;263.90;135.20;;;;;;;-13.53;72.06;100497.34;108528;1283;22119;-75
2021/12/26 07:05:00;;;;;;;280.70;135.20;;;;;;;-13.50;72.20;100500.70;108584;1282;22015;-75
2021/12/26 07:07:58;;;;;;;270.00;128.30;;;;;;;-13.51;72.06;100503.25;108466;1282;22464;-75
2021/12/26 07:10:27;;;;;;;278.60;135.10;;;;;;;-13.56;72.14;100503.80;108679;1276;23640;-75
2021/12/26 07:12:57;;;;;;;239.50;126.00;;;;;;;-13.59;72.18;100507.21;109103;1274;21983;-76
2021/12/26 07:15:35;;;;;;;258.30;125.30;;;;;;;-13.64;71.94;100512.50;108817;1278;22014;-76
2021/12/26 07:18:05;;;;;;;306.00;161.70;;;;;;;-13.67;72.15;100515.76;109003;1275;22055;-76
2021/12/26 07:20:37;;;;;;;267.10;136.70;;;;;;;-13.67;72.30;100520.33;109070;1274;21992;-75
2021/12/26 07:23:25;;;;;;;265.40;133.80;;;;;;;-13.64;72.42;100520.30;109133;1273;21977;-75
2021/12/26 07:26:02;;;;;;;273.30;138.80;;;;;;;-13.58;72.65;100526.68;109120;1273;22163;-75
2021/12/26 07:28:32;;;;;;;274.30;132.30;;;;;;;-13.53;72.77;100534.60;108598;1280;22483;-76
2021/12/26 07:31:27;;;;;;;279.60;133.60;;;;;;;-13.44;72.82;100536.73;108656;1280;23813;-74
2021/12/26 07:34:01;;;;;;;286.30;144.50;;;;;;;-13.34;72.90;100538.52;108537;1281;22044;-74
2021/12/26 07:36:33;;;;;;;264.90;133.20;;;;;;;-13.28;72.84;100537.61;108514;1280;21978;-74
2021/12/26 07:39:23;;;;;;;392.40;172.30;;;;;;;-13.20;72.95;100542.08;108709;1281;23756;-75
2021/12/26 07:41:52;;;;;;;283.70;138.50;;;;;;;-13.08;73.24;100541.45;108596;1281;23010;-74
2021/12/26 07:44:40;;;;;;;234.40;119.00;;;;;;;-12.98;72.93;100543.75;108422;1286;22268;-75
2021/12/26 07:47:38;;;;;;;259.10;130.20;;;;;;;-13.03;72.60;100545.99;108422;1281;22417;-75
2021/12/26 07:50:09;;;;;;;306.10;154.00;;;;;;;-13.06;72.65;100545.17;108475;1281;23832;-75
2021/12/26 07:53:04;;;;;;;239.50;121.40;;;;;;;-13.06;72.65;100542.45;108711;1281;21979;-75
2021/12/26 07:55:52;;;;;;;241.70;127.70;;;;;;;-13.06;72.65;100536.52;108701;1281;21979;-75
2021/12/26 07:58:42;;;;;;;257.40;133.90;;;;;;;-13.04;72.81;100529.05;108388;1286;23730;-75
2021/12/26 08:01:30;;;;;;;226.20;123.40;;;;;;;-13.00;72.93;100529.85;108317;1285;24303;-75
2021/12/26 08:04:27;;;;;;;253.10;128.50;;;;;;;-12.95;73.03;100531.33;108463;1280;22070;-75
2021/12/26 08:07:16;;;;;;;277.20;138.00;;;;;;;-12.90;73.15;100530.09;108616;1280;22065;-74
2021/12/26 08:09:45;;;;;;;286.10;147.50;;;;;;;-12.84;73.26;100528.84;108340;1286;23801;-76
2021/12/26 08:12:52;;;;;;;313.20;158.00;;;;;;;-12.75;73.37;100529.93;107898;1291;22042;-74
2021/12/26 08:15:50;;;;;;;304.00;159.80;;;;;;;-12.60;73.56;100535.18;108324;1288;23560;-81
2021/12/26 08:18:35;;;;;;;;;;;;;;;;;;;;;
2021/12/26 08:21:13;;;;;;;316.60;169.60;;;;;;;-12.31;73.62;100540.44;108651;1287;22187;-79
2021/12/26 08:23:48;;;;;;;278.40;143.40;;;;;;;-12.19;73.74;100547.58;108595;1286;22030;-80
2021/12/26 08:26:34;;;;;;;270.50;139.60;;;;;;;-12.04;73.77;100543.64;108203;1291;22513;-80
2021/12/26 08:29:04;;;;;;;283.50;141.80;;;;;;;-11.91;73.68;100537.17;108416;1291;22842;-79
2021/12/26 08:31:41;;;;;;;270.20;138.40;;;;;;;-11.78;73.72;100535.09;109143;1284;22048;-81
2021/12/26 08:34:22;;;;;;;275.20;141.00;;;;;;;-11.66;73.66;100537.61;108705;1284;22023;-80
2021/12/26 08:37:04;;;;;;;268.10;137.80;;;;;;;-11.57;73.46;100532.73;106698;1284;2512510;-80
2021/12/26 08:39:42;;;;;;;278.40;139.60;;;;;;;-11.48;73.41;100534.11;108775;1284;21970;-81
2021/12/26 08:42:17;;;;;;;305.70;161.10;;;;;;;-11.39;73.46;100532.09;108554;1284;22231;-75
2021/12/26 08:44:46;;;;;;;322.90;175.10;;;;;;;-11.26;73.48;100531.89;108587;1278;22241;-75
2021/12/26 08:47:16;;;;;;;299.50;156.20;;;;;;;-11.16;73.45;100534.42;108850;1278;22208;-76
2021/12/26 08:49:46;;;;;;;278.20;151.00;;;;;;;-11.10;73.37;100538.22;108390;1285;22236;-75
2021/12/26 08:52:15;;;;;;;285.00;151.00;;;;;;;-11.09;73.13;100545.70;108425;1285;22931;-76
2021/12/26 08:54:44;;;;;;;304.60;161.40;;;;;;;-11.06;73.39;100546.33;108542;1281;23067;-75
2021/12/26 08:57:15;;;;;;;297.30;156.70;;;;;;;-11.01;73.47;100544.35;108466;1281;21980;-75
2021/12/26 08:59:44;;;;;;;303.70;167.00;;;;;;;-10.94;73.45;100536.75;108503;1281;21997;-75
2021/12/26 09:02:14;;;;;;;319.80;174.70;;;;;;;-10.86;73.57;100540.34;108757;1280;22668;-75
2021/12/26 09:04:43;;;;;;;309.50;164.50;;;;;;;-10.77;73.61;100544.77;108533;1281;21991;-76
2021/12/26 09:07:16;;;;;;;302.50;168.90;;;;;;;-10.69;73.66;100549.40;108534;1274;22132;-76
2021/12/26 09:09:49;;;;;;;316.30;173.30;;;;;;;-10.59;73.72;100546.81;108955;1275;22054;-75
2021/12/26 09:12:19;;;;;;;333.30;175.70;;;;;;;-10.48;73.89;100552.38;109139;1274;21979;-74
2021/12/26 09:14:52;;;;;;;;;;;;;;;-10.37;73.97;100547.41;109274;1274;23038;-76
2021/12/26 09:17:29;;;;;;;304.30;159.40;;;;;;;-10.29;74.08;100546.22;108930;1275;21993;-75
2021/12/26 09:20:01;;;;;;;309.40;170.30;;;;;;;-10.20;74.04;100544.45;109148;1275;22259;-76
2021/12/26 09:22:34;;;;;;;285.60;164.10;;;;;;;-10.09;74.16;100545.25;109145;1274;23100;-75
2021/12/26 09:25:04;;;;;;;304.20;164.30;;;;;;;-9.95;74.32;100541.02;109261;1273;21966;-76
2021/12/26 09:27:37;;;;;;;297.30;168.70;;;;;;;-9.77;74.46;100543.17;109073;1273;22000;-75
2021/12/26 09:30:12;;;;;;;286.60;159.80;;;;;;;-9.59;74.62;100545.83;109127;1275;22025;-76
2021/12/26 09:32:43;;;;;;;335.50;186.90;;;;;;;-9.41;74.68;100543.53;109098;1270;22439;-74
2021/12/26 09:35:14;;;;;;;332.10;183.70;;;;;;;-9.24;74.72;100546.36;109236;1270;22591;-75
2021/12/26 09:37:44;;;;;;;331.30;188.30;;;;;;;-9.04;74.85;100551.98;109038;1275;21991;-74
2021/12/26 09:40:25;;;;;;;294.50;173.20;;;;;;;-8.83;75.03;100551.28;108997;1275;24244;-75
2021/12/26 09:42:55;;;;;;;274.00;151.20;;;;;;;-8.62;75.09;100551.56;108919;1275;22211;-76
2021/12/26 09:45:27;;;;;;;263.20;147.60;;;;;;;-8.50;74.70;100550.73;109067;1274;23135;-75
2021/12/26 09:47:59;;;;;;;274.10;155.50;;;;;;;-8.35;74.74;100548.60;109102;1274;22028;-76
2021/12/26 09:50:28;;;;;;;242.40;146.80;;;;;;;-8.17;74.91;100548.73;109043;1275;23645;-76
2021/12/26 09:53:00;;;;;;;303.60;167.80;;;;;;;-7.98;74.90;100546.29;109191;1275;22393;-76
2021/12/26 09:55:32;;;;;;;282.50;163.30;;;;;;;-7.82;74.64;100547.35;108914;1279;21999;-75
2021/12/26 09:58:02;;;;;;;273.40;163.40;;;;;;;-7.71;74.31;100548.73;108814;1280;22030;-76
2021/12/26 10:00:39;;;;;;;263.90;154.90;;;;;;;-7.60;74.16;100546.17;108837;1280;21982;-76
2021/12/26 10:03:16;;;;;;;270.10;165.20;;;;;;;-7.50;74.03;100551.16;108752;1280;22740;-76
2021/12/26 10:06:11;;;;;;;257.80;158.60;;;;;;;-7.34;74.26;100549.26;108867;1280;23796;-76
2021/12/26 10:09:09;;;;;;;251.80;150.80;;;;;;;-7.19;74.05;100555.98;108645;1281;22311;-77
2021/12/26 10:11:43;;;;;;;239.60;144.70;;;;;;;-7.06;73.88;100555.88;108711;1278;21980;-76
2021/12/26 10:14:24;;;;;;;234.40;138.30;;;;;;;-6.95;73.90;100553.29;108870;1278;22059;-76
2021/12/26 10:17:05;;;;;;;203.50;120.90;;;;;;;-6.83;73.87;100550.98;108641;1278;21980;-77
2021/12/26 10:19:37;;;;;;;220.30;130.50;;;;;;;-6.69;73.83;100551.38;108366;1280;21989;-76
2021/12/26 10:22:10;;;;;;;226.50;144.40;;;;;;;-6.57;73.70;100552.65;108735;1280;23839;-77
2021/12/26 10:24:49;;;;;;;225.40;142.60;;;;;;;-6.41;73.97;100554.98;108602;1281;23092;-76
2021/12/26 10:27:31;;;;;;;226.60;136.20;;;;;;;-6.25;74.02;100554.77;108184;1288;22780;-76
2021/12/26 10:30:05;;;;;;;230.10;137.80;;;;;;;-6.12;73.79;100557.70;108145;1288;22014;-76
2021/12/26 10:32:38;;;;;;;209.60;132.10;;;;;;;-5.98;73.80;100553.05;108229;1286;23085;-76
2021/12/26 10:35:16;;;;;;;220.90;129.90;;;;;;;-5.84;73.47;100548.92;108330;1287;24159;-78
2021/12/26 10:37:52;;;;;;;221.70;140.10;;;;;;;-5.73;73.29;100549.84;108463;1280;22974;-76
2021/12/26 10:40:28;;;;;;;202.30;123.20;;;;;;;-5.60;73.29;100550.58;108548;1279;23726;-77
2021/12/26 10:43:09;;;;;;;224.40;139.30;;;;;;;-5.43;73.47;100545.57;108520;1281;22013;-79
2021/12/26 10:45:39;;;;;;;215.70;130.40;;;;;;;-5.24;73.50;100547.20;108905;1275;23592;-75
2021/12/26 10:48:10;;;;;;;185.90;117.60;;;;;;;-5.07;73.13;100550.81;109166;1275;21966;-75
2021/12/26 10:50:41;;;;;;;199.30;121.40;;;;;;;-4.96;72.62;100550.19;109146;1274;22042;-77
2021/12/26 10:53:14;;;;;;;205.80;127.20;;;;;;;-4.88;72.15;100554.47;108953;1275;22055;-76
2021/12/26 10:55:51;;;;;;;236.40;148.00;;;;;;;-4.80;71.85;100557.20;109269;1274;21999;-75
2021/12/26 10:58:23;;;;;;;220.50;139.30;;;;;;;-4.65;71.84;100548.17;108658;1279;25044;-78
2021/12/26 11:00:58;;;;;;;205.60;132.70;;;;;;;-4.49;71.82;100544.40;108633;1281;21972;-77
2021/12/26 11:03:31;;;;;;;223.50;138.80;;;;;;;-4.32;71.56;100543.65;108587;1281;21993;-77
2021/12/26 11:06:06;;;;;;;227.40;139.30;;;;;;;-4.07;71.41;100543.05;108657;1281;23650;-77
2021/12/26 11:08:44;;;;;;;217.60;142.40;;;;;;;-3.75;71.85;100545.15;108211;1286;22027;-77
2021/12/26 11:11:23;;;;;;;237.30;160.20;;;;;;;-3.44;71.50;100545.94;108261;1286;23144;-78
2021/12/26 11:14:03;;;;;;;204.30;136.70;;;;;;;-3.20;70.85;100535.46;108409;1284;21987;-78
2021/12/26 11:16:40;;;;;;;213.40;137.20;;;;;;;-3.06;69.85;100536.34;108296;1280;22040;-77
2021/12/26 11:19:10;;;;;;;196.70;123.80;;;;;;;-3.04;69.26;100535.70;108467;1281;23531;-77
2021/12/26 11:21:39;;;;;;;186.20;115.90;;;;;;;-3.01;69.05;100532.29;108440;1280;22033;-77